createdAt,value
2019-03-17T00:01:59.919Z,14.60
2019-03-17T00:04:50.208Z,14.63
2019-03-17T00:07:40.519Z,14.64
2019-03-17T00:10:30.766Z,14.59
2019-03-17T00:13:21.045Z,14.51
2019-03-17T00:16:11.320Z,14.48
2019-03-17T00:19:01.918Z,14.20
2019-03-17T00:21:52.300Z,14.19
2019-03-17T00:24:42.684Z,14.17
2019-03-17T00:27:32.966Z,14.16
2019-03-17T00:30:23.280Z,14.14
2019-03-17T00:33:13.585Z,14.09
2019-03-17T00:36:03.922Z,14.02
2019-03-17T00:38:54.158Z,14.00
2019-03-17T00:41:44.484Z,13.93
2019-03-17T00:44:34.844Z,13.90
2019-03-17T00:47:25.359Z,13.85
2019-03-17T00:50:15.909Z,13.81
2019-03-17T00:53:06.398Z,13.73
2019-03-17T00:55:56.409Z,13.65
2019-03-17T00:58:46.418Z,13.63
2019-03-17T01:01:36.660Z,13.60
2019-03-17T01:04:26.989Z,13.54
2019-03-17T01:07:17.269Z,13.49
2019-03-17T01:10:07.827Z,13.48
2019-03-17T01:12:58.128Z,13.44
2019-03-17T01:15:48.523Z,13.35
2019-03-17T01:18:39.069Z,13.33
2019-03-17T01:21:29.321Z,13.27
2019-03-17T01:24:19.531Z,13.22
2019-03-17T01:27:09.609Z,13.25
2019-03-17T01:29:59.836Z,13.24
2019-03-17T01:32:50.125Z,13.18
2019-03-17T01:35:40.165Z,12.91
2019-03-17T01:38:32.964Z,12.94
2019-03-17T01:41:23.014Z,13.05
2019-03-17T01:44:13.303Z,13.07
2019-03-17T01:47:03.868Z,13.13
2019-03-17T01:49:56.413Z,13.16
2019-03-17T01:52:46.878Z,13.24
2019-03-17T01:55:37.300Z,13.29
2019-03-17T01:58:27.539Z,13.35
2019-03-17T02:01:17.919Z,13.35
2019-03-17T02:04:08.269Z,13.35
2019-03-17T02:06:59.748Z,13.34
2019-03-17T02:09:49.649Z,13.28
2019-03-17T02:12:39.683Z,13.26
2019-03-17T02:15:29.924Z,13.24
2019-03-17T02:18:20.204Z,13.26
2019-03-17T02:21:10.862Z,13.28
2019-03-17T02:24:01.553Z,13.26
2019-03-17T02:26:52.017Z,13.29
2019-03-17T02:29:42.400Z,13.29
2019-03-17T02:32:33.529Z,13.26
2019-03-17T02:35:38.059Z,13.23
2019-03-17T02:38:15.291Z,13.24
2019-03-17T02:41:05.802Z,13.23
2019-03-17T02:43:55.704Z,13.24
2019-03-17T02:46:46.139Z,13.22
2019-03-17T02:49:36.437Z,13.24
2019-03-17T02:52:26.570Z,13.23
2019-03-17T02:55:16.921Z,13.25
2019-03-17T02:58:07.549Z,13.24
2019-03-17T03:00:57.865Z,13.20
2019-03-17T03:03:48.180Z,13.20
2019-03-17T03:06:38.298Z,13.15
2019-03-17T03:09:28.590Z,13.13
2019-03-17T03:12:18.683Z,13.11
2019-03-17T03:15:08.893Z,13.18
2019-03-17T03:17:59.106Z,13.21
2019-03-17T03:20:49.426Z,13.20
2019-03-17T03:23:39.598Z,13.22
2019-03-17T03:26:30.210Z,13.23
2019-03-17T03:29:21.021Z,13.28
2019-03-17T03:32:11.146Z,13.37
2019-03-17T03:35:02.466Z,13.33
2019-03-17T03:37:52.617Z,13.42
2019-03-17T03:40:42.613Z,13.42
2019-03-17T03:43:32.872Z,13.46
2019-03-17T03:46:22.903Z,13.10
2019-03-17T03:49:14.195Z,12.75
2019-03-17T03:52:04.399Z,12.71
2019-03-17T03:54:54.830Z,12.80
2019-03-17T03:57:45.119Z,12.83
2019-03-17T04:00:35.318Z,12.81
2019-03-17T04:03:25.477Z,12.79
2019-03-17T04:06:26.588Z,12.84
2019-03-17T04:09:08.420Z,12.85
2019-03-17T04:11:58.996Z,12.75
2019-03-17T04:14:49.242Z,12.81
2019-03-17T04:17:39.193Z,12.76
2019-03-17T04:20:30.189Z,12.77
2019-03-17T04:23:20.840Z,12.77
2019-03-17T04:26:11.060Z,12.90
2019-03-17T04:29:01.312Z,12.90
2019-03-17T04:31:51.671Z,12.90
2019-03-17T04:34:42.178Z,12.93
2019-03-17T04:37:32.385Z,12.91
2019-03-17T04:40:22.470Z,13.03
2019-03-17T04:43:12.679Z,13.04
2019-03-17T04:46:02.750Z,12.97
2019-03-17T04:48:55.563Z,12.86
2019-03-17T04:51:45.987Z,13.07
2019-03-17T04:54:36.369Z,13.15
2019-03-17T04:57:26.769Z,13.38
2019-03-17T05:00:16.979Z,13.59
2019-03-17T05:03:07.561Z,13.84
2019-03-17T05:05:58.077Z,14.17
2019-03-17T05:08:48.458Z,14.62
2019-03-17T05:11:38.613Z,15.00
2019-03-17T05:14:28.978Z,15.61
2019-03-17T05:17:19.158Z,16.18
2019-03-17T05:20:09.604Z,16.44
2019-03-17T05:22:59.632Z,16.97
2019-03-17T05:25:49.931Z,17.67
2019-03-17T05:28:40.198Z,18.43
2019-03-17T05:31:30.714Z,19.68
2019-03-17T05:34:22.236Z,20.66
2019-03-17T05:37:12.684Z,21.62
2019-03-17T05:40:02.619Z,22.51
2019-03-17T05:42:54.404Z,21.70
2019-03-17T05:45:44.753Z,22.78
2019-03-17T05:48:35.125Z,22.26
2019-03-17T05:51:27.079Z,22.90
2019-03-17T05:54:17.949Z,23.95
2019-03-17T05:57:08.446Z,23.55
2019-03-17T05:59:59.487Z,23.73
2019-03-17T06:02:50.479Z,24.18
2019-03-17T06:05:41.704Z,24.86
2019-03-17T06:08:33.641Z,24.45
2019-03-17T06:11:24.682Z,25.72
2019-03-17T06:14:15.442Z,25.91
2019-03-17T06:17:06.460Z,26.93
2019-03-17T06:19:57.550Z,28.37
2019-03-17T06:22:48.585Z,30.07
2019-03-17T06:25:39.370Z,29.82
2019-03-17T06:28:30.065Z,31.66
2019-03-17T06:31:20.557Z,31.69
2019-03-17T06:34:11.138Z,31.69
2019-03-17T06:37:01.473Z,32.37
2019-03-17T06:39:52.386Z,30.87
2019-03-17T06:42:42.725Z,27.97
2019-03-17T06:45:33.678Z,25.48
2019-03-17T06:48:25.530Z,27.34
2019-03-17T06:51:16.315Z,29.39
2019-03-17T06:54:07.409Z,30.83
2019-03-17T06:56:58.386Z,27.79
2019-03-17T06:59:49.222Z,26.12
2019-03-17T07:02:39.709Z,25.73
2019-03-17T07:05:30.765Z,26.41
2019-03-17T07:08:21.478Z,25.62
2019-03-17T07:11:12.301Z,26.32
2019-03-17T07:14:03.258Z,25.75
2019-03-17T07:16:53.845Z,25.48
2019-03-17T07:19:44.669Z,26.00
2019-03-17T07:22:35.484Z,26.36
2019-03-17T07:25:26.204Z,29.05
2019-03-17T07:28:17.068Z,31.33
2019-03-17T07:31:08.592Z,33.33
2019-03-17T07:33:58.537Z,33.33
2019-03-17T07:36:49.376Z,33.07
2019-03-17T07:39:40.214Z,32.83
2019-03-17T07:42:32.579Z,32.91
2019-03-17T07:45:23.642Z,32.91
2019-03-17T07:48:14.578Z,34.92
2019-03-17T07:51:05.457Z,33.83
2019-03-17T07:53:56.587Z,33.50
2019-03-17T07:56:47.283Z,29.14
2019-03-17T07:59:38.166Z,28.81
2019-03-17T08:02:29.149Z,27.22
2019-03-17T08:05:20.001Z,26.97
2019-03-17T08:08:10.562Z,25.91
2019-03-17T08:11:01.494Z,26.34
2019-03-17T08:13:52.327Z,25.45
2019-03-17T08:16:43.129Z,25.48
2019-03-17T08:19:33.942Z,25.59
2019-03-17T08:22:24.963Z,24.61
2019-03-17T08:25:15.772Z,24.34
2019-03-17T08:28:06.852Z,24.24
2019-03-17T08:30:57.636Z,24.21
2019-03-17T08:33:48.354Z,23.72
2019-03-17T08:36:39.391Z,23.28
2019-03-17T08:39:30.521Z,23.99
2019-03-17T08:42:21.473Z,24.89
2019-03-17T08:45:12.425Z,23.09
2019-03-17T08:48:02.389Z,22.53
2019-03-17T08:50:52.679Z,21.60
2019-03-17T08:53:42.938Z,21.14
2019-03-17T08:56:33.190Z,20.72
2019-03-17T08:59:24.453Z,20.64
2019-03-17T09:02:14.738Z,20.06
2019-03-17T09:05:05.111Z,20.25
2019-03-17T09:07:55.354Z,20.40
2019-03-17T09:10:45.959Z,20.68
2019-03-17T09:13:36.342Z,21.03
2019-03-17T09:16:26.326Z,21.94
2019-03-17T09:19:16.767Z,22.13
2019-03-17T09:22:06.924Z,22.35
2019-03-17T09:24:57.950Z,22.41
2019-03-17T09:27:48.512Z,22.97
2019-03-17T09:30:38.674Z,22.23
2019-03-17T09:33:28.618Z,21.95
2019-03-17T09:36:18.879Z,21.48
2019-03-17T09:39:09.378Z,21.15
2019-03-17T09:41:59.722Z,20.48
2019-03-17T09:44:49.984Z,20.16
2019-03-17T09:47:41.396Z,19.89
2019-03-17T09:50:31.491Z,19.73
2019-03-17T09:53:21.657Z,19.89
2019-03-17T09:56:11.662Z,20.04
2019-03-17T09:59:02.014Z,19.62
2019-03-17T10:01:52.268Z,19.69
2019-03-17T10:04:42.719Z,19.50
2019-03-17T10:07:33.195Z,19.50
2019-03-17T10:10:23.763Z,19.63
2019-03-17T10:13:14.252Z,19.44
2019-03-17T10:16:04.538Z,19.71
2019-03-17T10:18:55.142Z,19.88
2019-03-17T10:21:45.786Z,19.88
2019-03-17T10:24:36.298Z,19.84
2019-03-17T10:27:26.270Z,19.95
2019-03-17T10:30:16.339Z,19.81
2019-03-17T10:33:06.723Z,19.78
2019-03-17T10:35:56.789Z,19.67
2019-03-17T10:38:47.336Z,19.66
2019-03-17T10:41:37.744Z,19.70
2019-03-17T10:44:29.185Z,19.66
2019-03-17T10:47:19.795Z,19.58
2019-03-17T10:50:12.384Z,19.74
2019-03-17T10:53:02.433Z,19.88
2019-03-17T10:55:52.665Z,19.79
2019-03-17T10:58:42.944Z,19.47
2019-03-17T11:01:32.980Z,19.32
2019-03-17T11:04:23.497Z,19.45
2019-03-17T11:07:13.790Z,19.52
2019-03-17T11:10:03.826Z,19.45
2019-03-17T11:12:54.172Z,19.52
2019-03-17T11:15:44.581Z,19.59
2019-03-17T11:18:35.365Z,19.39
2019-03-17T11:21:25.553Z,19.31
2019-03-17T11:24:15.894Z,19.45
2019-03-17T11:27:05.964Z,19.50
2019-03-17T11:29:56.356Z,19.62
2019-03-17T11:32:46.869Z,19.62
2019-03-17T11:35:37.221Z,19.52
2019-03-17T11:38:27.557Z,19.84
2019-03-17T11:41:18.938Z,19.91
2019-03-17T11:44:09.147Z,20.12
2019-03-17T11:46:59.152Z,20.12
2019-03-17T11:49:49.463Z,20.21
2019-03-17T11:52:39.580Z,19.92
2019-03-17T11:55:31.870Z,20.07
2019-03-17T11:58:21.905Z,20.07
2019-03-17T12:01:12.268Z,19.99
2019-03-17T12:04:02.825Z,19.91
2019-03-17T12:06:53.050Z,20.05
2019-03-17T12:09:50.152Z,20.05
2019-03-17T12:12:35.538Z,20.12
2019-03-17T12:15:25.860Z,20.22
2019-03-17T12:18:15.960Z,20.41
2019-03-17T12:21:06.532Z,20.43
2019-03-17T12:23:57.005Z,20.40
2019-03-17T12:26:47.593Z,20.49
2019-03-17T12:29:37.927Z,20.45
2019-03-17T12:32:28.805Z,20.51
2019-03-17T12:35:19.090Z,20.56
2019-03-17T12:38:09.826Z,20.55
2019-03-17T12:41:00.074Z,20.54
2019-03-17T12:43:50.180Z,20.53
2019-03-17T12:46:40.340Z,20.54
2019-03-17T12:49:30.714Z,20.54
2019-03-17T12:52:21.560Z,20.46
2019-03-17T12:55:11.771Z,20.38
2019-03-17T12:58:01.934Z,20.35
2019-03-17T13:00:52.231Z,20.31
2019-03-17T13:03:42.765Z,20.21
2019-03-17T13:06:35.660Z,20.21
2019-03-17T13:09:25.661Z,20.42
2019-03-17T13:12:15.974Z,20.41
2019-03-17T13:15:08.129Z,20.53
2019-03-17T13:17:58.195Z,20.71
2019-03-17T13:20:48.487Z,20.90
2019-03-17T13:23:39.191Z,21.08
2019-03-17T13:26:29.569Z,21.14
2019-03-17T13:29:20.096Z,20.89
2019-03-17T13:32:10.248Z,20.83
2019-03-17T13:35:00.581Z,20.73
2019-03-17T13:37:51.749Z,20.55
2019-03-17T13:40:41.789Z,20.32
2019-03-17T13:43:32.039Z,20.34
2019-03-17T13:46:22.745Z,20.57
2019-03-17T13:49:12.685Z,20.66
2019-03-17T13:52:03.131Z,20.60
2019-03-17T13:54:53.466Z,20.65
2019-03-17T13:57:44.203Z,20.71
2019-03-17T14:00:35.672Z,20.56
2019-03-17T14:03:26.138Z,20.63
2019-03-17T14:06:16.490Z,20.64
2019-03-17T14:09:07.631Z,20.61
2019-03-17T14:11:57.730Z,20.48
2019-03-17T14:14:47.914Z,20.58
2019-03-17T14:17:38.132Z,20.42
2019-03-17T14:20:31.077Z,20.33
2019-03-17T14:23:21.277Z,20.21
2019-03-17T14:26:11.580Z,20.11
2019-03-17T14:29:01.952Z,20.01
2019-03-17T14:31:52.796Z,19.90
2019-03-17T14:34:43.097Z,20.04
2019-03-17T14:37:33.229Z,19.96
2019-03-17T14:40:24.630Z,19.83
2019-03-17T14:43:14.605Z,19.75
2019-03-17T14:46:04.860Z,19.71
2019-03-17T14:48:57.290Z,19.67
2019-03-17T14:51:47.505Z,19.65
2019-03-17T14:54:37.935Z,19.65
2019-03-17T14:57:28.209Z,19.60
2019-03-17T15:00:19.347Z,19.54
2019-03-17T15:03:09.600Z,19.47
2019-03-17T15:05:59.662Z,19.40
2019-03-17T15:08:50.731Z,19.29
2019-03-17T15:11:41.318Z,19.25
2019-03-17T15:14:31.481Z,19.25
2019-03-17T15:17:21.799Z,19.25
2019-03-17T15:20:13.959Z,19.12
2019-03-17T15:23:04.223Z,19.12
2019-03-17T15:25:54.241Z,19.10
2019-03-17T15:28:44.797Z,19.09
2019-03-17T15:31:34.797Z,19.12
2019-03-17T15:34:25.152Z,19.12
2019-03-17T15:37:15.460Z,19.12
2019-03-17T15:40:06.873Z,19.11
2019-03-17T15:42:56.844Z,19.11
2019-03-17T15:45:47.423Z,19.16
2019-03-17T15:48:37.811Z,19.19
2019-03-17T15:51:28.177Z,19.15
2019-03-17T15:54:21.354Z,19.15
2019-03-17T15:57:10.473Z,19.15
2019-03-17T16:00:00.828Z,19.25
2019-03-17T16:02:50.930Z,19.25
2019-03-17T16:05:41.248Z,19.17
2019-03-17T16:08:31.943Z,19.19
2019-03-17T16:11:30.841Z,19.13
2019-03-17T16:14:13.856Z,19.10
2019-03-17T16:17:03.877Z,19.01
2019-03-17T16:19:54.485Z,18.74
2019-03-17T16:22:44.825Z,18.59
2019-03-17T16:25:35.911Z,18.37
2019-03-17T16:28:26.148Z,18.14
2019-03-17T16:31:16.584Z,18.11
2019-03-17T16:34:06.914Z,18.05
2019-03-17T16:36:57.321Z,17.92
2019-03-17T16:39:47.932Z,17.89
2019-03-17T16:42:41.004Z,17.86
2019-03-17T16:45:31.122Z,17.87
2019-03-17T16:48:21.592Z,17.83
2019-03-17T16:51:11.860Z,17.73
2019-03-17T16:54:02.444Z,17.71
2019-03-17T16:56:52.960Z,17.65
2019-03-17T16:59:43.353Z,17.58
2019-03-17T17:02:33.625Z,17.54
2019-03-17T17:05:23.970Z,17.45
2019-03-17T17:08:14.172Z,17.48
2019-03-17T17:11:04.450Z,17.44
2019-03-17T17:13:55.798Z,17.31
2019-03-17T17:16:45.914Z,17.35
2019-03-17T17:19:36.250Z,17.22
2019-03-17T17:22:29.045Z,17.11
2019-03-17T17:25:19.163Z,16.92
2019-03-17T17:28:09.661Z,16.84
2019-03-17T17:31:00.352Z,16.81
2019-03-17T17:33:50.948Z,16.72
2019-03-17T17:36:41.413Z,16.68
2019-03-17T17:39:31.365Z,16.54
2019-03-17T17:42:21.566Z,16.38
2019-03-17T17:45:13.826Z,16.37
2019-03-17T17:48:06.333Z,16.35
2019-03-17T17:50:56.541Z,16.25
2019-03-17T17:53:46.712Z,16.35
2019-03-17T17:56:37.105Z,16.43
2019-03-17T17:59:27.673Z,16.44
2019-03-17T18:02:17.802Z,16.44
2019-03-17T18:05:08.177Z,16.56
2019-03-17T18:07:58.506Z,16.40
2019-03-17T18:10:48.887Z,16.33
2019-03-17T18:13:38.999Z,16.31
2019-03-17T18:16:29.323Z,16.33
2019-03-17T18:19:20.048Z,16.33
2019-03-17T18:22:10.539Z,16.33
2019-03-17T18:25:00.745Z,16.32
2019-03-17T18:27:50.931Z,16.43
2019-03-17T18:30:41.294Z,16.20
2019-03-17T18:33:31.513Z,16.12
2019-03-17T18:36:22.138Z,16.01
2019-03-17T18:39:12.325Z,16.06
2019-03-17T18:42:02.788Z,16.05
2019-03-17T18:44:53.062Z,16.05
2019-03-17T18:47:43.435Z,15.98
2019-03-17T18:50:33.692Z,15.98
2019-03-17T18:53:24.138Z,16.06
2019-03-17T18:56:14.309Z,16.10
2019-03-17T18:59:04.445Z,15.93
2019-03-17T19:01:54.449Z,15.99
2019-03-17T19:04:45.089Z,16.02
2019-03-17T19:07:35.488Z,16.08
2019-03-17T19:10:25.557Z,15.87
2019-03-17T19:13:15.676Z,15.80
2019-03-17T19:16:08.016Z,15.64
2019-03-17T19:18:59.735Z,15.62
2019-03-17T19:21:50.245Z,15.54
2019-03-17T19:24:40.191Z,15.55
2019-03-17T19:27:30.844Z,15.61
2019-03-17T19:30:21.438Z,15.61
2019-03-17T19:33:12.134Z,15.72
2019-03-17T19:36:02.148Z,15.84
2019-03-17T19:38:52.536Z,15.90
2019-03-17T19:41:42.956Z,15.91
2019-03-17T19:44:33.149Z,15.83
2019-03-17T19:47:23.583Z,15.83
2019-03-17T19:50:14.370Z,15.74
2019-03-17T19:53:04.553Z,15.75
2019-03-17T19:55:54.857Z,15.83
2019-03-17T19:58:45.101Z,15.75
2019-03-17T20:01:38.532Z,15.60
2019-03-17T20:04:34.982Z,15.49
2019-03-17T20:07:22.764Z,15.58
2019-03-17T20:10:15.544Z,15.54
2019-03-17T20:13:11.486Z,15.56
2019-03-17T20:15:57.324Z,15.58
2019-03-17T20:18:47.678Z,15.52
2019-03-17T20:21:37.810Z,15.48
2019-03-17T20:24:28.076Z,15.44
2019-03-17T20:27:18.476Z,15.43
2019-03-17T20:30:11.663Z,15.37
2019-03-17T20:33:01.748Z,15.24
2019-03-17T20:35:52.500Z,15.33
2019-03-17T20:38:42.992Z,15.28
2019-03-17T20:41:33.360Z,15.34
2019-03-17T20:44:23.533Z,15.27
2019-03-17T20:47:14.143Z,15.08
2019-03-17T20:50:04.640Z,14.96
2019-03-17T20:52:57.286Z,15.02
2019-03-17T20:55:47.256Z,15.07
2019-03-17T20:58:37.888Z,15.02
2019-03-17T21:01:28.173Z,15.07
2019-03-17T21:04:19.013Z,14.95
2019-03-17T21:07:09.325Z,14.78
2019-03-17T21:09:59.918Z,14.69
2019-03-17T21:12:50.363Z,14.60
2019-03-17T21:15:43.320Z,14.42
2019-03-17T21:18:33.777Z,14.36
2019-03-17T21:21:25.029Z,14.26
2019-03-17T21:24:15.215Z,14.23
2019-03-17T21:27:05.622Z,14.19
2019-03-17T21:29:55.797Z,14.13
2019-03-17T21:32:46.111Z,14.08
2019-03-17T21:35:36.486Z,14.05
2019-03-17T21:38:26.850Z,14.04
2019-03-17T21:41:17.118Z,14.06
2019-03-17T21:44:07.537Z,14.11
2019-03-17T21:46:58.061Z,14.14
2019-03-17T21:49:48.762Z,14.11
2019-03-17T21:52:38.704Z,14.12
2019-03-17T21:55:30.859Z,14.16
2019-03-17T21:58:20.836Z,14.22
2019-03-17T22:01:10.990Z,14.23
2019-03-17T22:04:01.333Z,14.19
2019-03-17T22:06:51.658Z,14.16
2019-03-17T22:09:41.695Z,14.20
2019-03-17T22:12:32.138Z,14.22
2019-03-17T22:15:22.176Z,14.19
2019-03-17T22:18:13.036Z,14.23
2019-03-17T22:21:03.403Z,14.29
2019-03-17T22:23:53.872Z,14.34
2019-03-17T22:26:44.094Z,14.31
2019-03-17T22:29:34.202Z,14.38
2019-03-17T22:32:24.484Z,14.43
2019-03-17T22:35:15.158Z,14.45
2019-03-17T22:38:05.372Z,14.53
2019-03-17T22:40:56.016Z,14.46
2019-03-17T22:43:46.096Z,14.50
2019-03-17T22:46:36.864Z,14.51
2019-03-17T22:49:27.459Z,14.48
2019-03-17T22:52:17.932Z,14.48
2019-03-17T22:55:08.448Z,14.51
2019-03-17T22:57:59.461Z,14.58
2019-03-17T23:00:49.822Z,14.61
2019-03-17T23:03:40.152Z,14.62
2019-03-17T23:06:30.398Z,14.62
2019-03-17T23:09:20.909Z,14.62
2019-03-17T23:12:11.129Z,14.68
2019-03-17T23:15:02.547Z,14.70
2019-03-17T23:17:53.150Z,14.69
2019-03-17T23:20:43.861Z,14.67
2019-03-17T23:23:34.345Z,14.67
2019-03-17T23:26:24.908Z,14.75
2019-03-17T23:29:14.914Z,14.73
2019-03-17T23:32:04.926Z,14.68
2019-03-17T23:34:56.366Z,14.69
2019-03-17T23:37:46.715Z,14.59
2019-03-17T23:40:36.915Z,14.51
2019-03-17T23:43:27.824Z,14.45
2019-03-17T23:46:18.024Z,14.40
2019-03-17T23:49:08.448Z,14.34
2019-03-17T23:51:59.405Z,14.25
2019-03-17T23:54:50.344Z,14.16
2019-03-17T23:57:42.365Z,14.13
